Terminal Aerodrome Forecast
Issued by NWS

Current Version | Previous Version | Text Only | Print | Product List | Glossary On
Versions: 1 2 3 4 5 6 7 8 9 10 11 12 13 14 15 16 17 18
698
FTUS46 KSTO 140545
TAFSCK
TAF
KSCK 140545Z 1406/1506 30006KT P6SM SKC
     FM141100 VRB05KT 3SM BR FEW250
      TEMPO 1413/1417 1/2SM FG OVC003
     FM141800 32013G23KT P6SM SKC
     FM150300 31012KT P6SM SKC=

USA.gov is the U.S. government's official web portal to all federal, state and local government web resources and services.